Meteorología y climatología de Navarra
Datos de la estación - Meteo Navarra

Estación de Bera (Larrategaña) GN

Altitud 306 m.


Datos desde el 15/02/2020 hasta el 16/02/2020 en horario solar
Los datos son PROVISIONALES

Anterior Página 1 de 1 Siguiente Descargar: Formato para Excel 2000 o superior   Formato csv   Formato para OpenOffice Calc
Fecha Temperatura Humedad relativa Radiación global Insolación Precipitación Vel. viento 10 m Vel. viento 10 m Dir. viento 10 m
ºC % W/m² s l/m² m/s km/h º
15/02/2020 0:00 7.4 91 0.0 0 0.0 2.6 9.4 236
15/02/2020 0:10 7.1 92 0.0 0 0.0 2.1 7.6 245
15/02/2020 0:20 7.1 92 0.0 0 0.0 2.3 8.4 237
15/02/2020 0:30 7.1 92 0.0 0 0.0 2.3 8.1 238
15/02/2020 0:40 7.0 92 0.0 0 0.0 2.1 7.7 236
15/02/2020 0:50 7.1 92 0.0 0 0.0 2.5 9.1 231
15/02/2020 1:00 7.2 91 0.0 0 0.0 2.6 9.5 238
15/02/2020 1:10 7.1 91 0.0 0 0.0 2.5 9.1 236
15/02/2020 1:20 7.1 91 0.0 0 0.0 2.7 9.6 233
15/02/2020 1:30 7.0 92 0.0 0 0.0 2.8 10.2 230
15/02/2020 1:40 6.7 93 0.0 0 0.0 2.7 9.8 236
15/02/2020 1:50 6.6 93 0.0 0 0.0 2.5 9.0 238
15/02/2020 2:00 6.6 94 0.0 0 0.0 2.5 9.1 240
15/02/2020 2:10 6.4 94 0.0 0 0.0 2.9 10.5 241
15/02/2020 2:20 6.3 94 0.0 0 0.0 2.6 9.2 241
15/02/2020 2:30 6.4 95 0.0 0 0.0 2.0 7.0 236
15/02/2020 2:40 6.3 94 0.0 0 0.0 2.0 7.2 234
15/02/2020 2:50 6.6 94 0.0 0 0.0 1.7 6.1 223
15/02/2020 3:00 6.8 92 0.0 0 0.0 1.6 5.8 237
15/02/2020 3:10 6.8 92 0.0 0 0.0 0.9 3.1 292
15/02/2020 3:20 7.0 91 0.0 0 0.0 1.5 5.3 227
15/02/2020 3:30 6.7 91 0.0 0 0.0 2.2 8.1 226
15/02/2020 3:40 6.5 93 0.0 0 0.0 2.7 9.6 241
15/02/2020 3:50 6.4 93 0.0 0 0.0 2.3 8.4 231
15/02/2020 4:00 6.0 94 0.0 0 0.0 2.6 9.5 244
15/02/2020 4:10 6.2 93 0.0 0 0.0 2.7 9.6 249
15/02/2020 4:20 6.7 90 0.0 0 0.0 2.5 8.9 242
15/02/2020 4:30 6.6 90 0.0 0 0.0 2.1 7.6 235
15/02/2020 4:40 6.7 90 0.0 0 0.0 2.4 8.6 242
15/02/2020 4:50 7.4 86 0.0 0 0.0 2.7 9.6 233
15/02/2020 5:00 7.3 86 0.0 0 0.0 2.9 10.4 229
15/02/2020 5:10 7.2 86 0.0 0 0.0 3.3 11.9 227
15/02/2020 5:20 7.5 85 0.0 0 0.0 3.1 11.3 220
15/02/2020 5:30 8.3 81 0.0 0 0.0 3.4 12.3 217
15/02/2020 5:40 9.0 78 0.0 0 0.0 3.1 11.2 223
15/02/2020 5:50 8.7 79 0.0 0 0.0 3.2 11.5 229
15/02/2020 6:00 8.9 78 0.0 0 0.0 3.7 13.2 224
15/02/2020 6:10 9.6 75 0.0 0 0.0 3.7 13.4 219
15/02/2020 6:20 10.4 72 0.0 0 0.0 3.5 12.5 209
15/02/2020 6:30 10.7 71 0.0 0 0.0 2.9 10.6 225
15/02/2020 6:40 10.9 70 0.0 0 0.0 4.6 16.5 207
15/02/2020 6:50 11.5 68 0.0 0 0.0 4.6 16.5 213
15/02/2020 7:00 11.6 68 0.0 0 0.0 4.8 17.2 208
15/02/2020 7:10 11.6 68 0.0 0 0.0 5.4 19.5 207
15/02/2020 7:20 12.2 65 0.0 0 0.0 5.7 20.4 203
15/02/2020 7:30 12.3 65 5.3 2 0.0 6.3 22.7 204
15/02/2020 7:40 12.2 65 50.9 600 0.0 5.4 19.5 206
15/02/2020 7:50 12.5 64 76.3 600 0.0 4.4 15.9 204
15/02/2020 8:00 12.3 65 102.4 600 0.0 5.2 18.8 215
15/02/2020 8:10 12.4 64 130.3 600 0.0 5.9 21.3 211
15/02/2020 8:20 12.5 64 158.8 600 0.0 5.6 20.1 213
15/02/2020 8:30 12.8 63 187.0 600 0.0 5.9 21.1 213
15/02/2020 8:40 13.1 62 215.8 600 0.0 5.3 19.2 214
15/02/2020 8:50 13.2 62 246.2 600 0.0 5.2 18.6 214
15/02/2020 9:00 13.5 60 274.0 600 0.0 5.7 20.6 195
15/02/2020 9:10 13.6 59 300.9 600 0.0 4.8 17.2 209
15/02/2020 9:20 14.0 58 328.3 600 0.0 4.9 17.8 205
15/02/2020 9:30 14.0 58 357.9 600 0.0 7.0 25.1 212
15/02/2020 9:40 14.3 57 384.7 600 0.0 7.0 25.3 219
15/02/2020 9:50 14.6 56 409.9 600 0.0 6.7 24.0 215
15/02/2020 10:00 14.8 55 433.6 600 0.0 7.9 28.5 214
15/02/2020 10:10 15.0 54 454.9 600 0.0 7.7 27.8 214
15/02/2020 10:20 15.2 54 476.0 600 0.0 9.1 32.6 216
15/02/2020 10:30 15.5 54 493.9 600 0.0 6.7 24.0 209
15/02/2020 10:40 15.7 53 510.1 600 0.0 7.0 25.3 209
15/02/2020 10:50 15.8 53 523.8 600 0.0 6.5 23.3 209
15/02/2020 11:00 16.0 53 538.5 600 0.0 7.1 25.5 200
15/02/2020 11:10 15.9 52 549.6 600 0.0 7.4 26.6 202
15/02/2020 11:20 16.3 52 559.8 600 0.0 5.4 19.4 195
15/02/2020 11:30 16.5 52 572.2 600 0.0 5.6 20.2 197
15/02/2020 11:40 16.6 52 579.2 600 0.0 5.6 20.3 197
15/02/2020 11:50 16.6 52 584.7 600 0.0 5.3 19.0 196
15/02/2020 12:00 17.0 52 593.6 600 0.0 6.3 22.5 206
15/02/2020 12:10 17.1 51 601.7 600 0.0 7.0 25.3 213
15/02/2020 12:20 17.2 50 610.4 600 0.0 7.1 25.6 206
15/02/2020 12:30 17.5 49 580.1 600 0.0 7.8 28.0 212
15/02/2020 12:40 17.5 48 545.7 600 0.0 6.9 24.8 196
15/02/2020 12:50 17.4 48 500.9 600 0.0 8.3 29.8 205
15/02/2020 13:00 17.5 47 543.5 600 0.0 8.1 29.2 207
15/02/2020 13:10 17.5 46 413.4 600 0.0 8.7 31.2 204
15/02/2020 13:20 17.5 47 462.0 600 0.0 7.8 27.9 201
15/02/2020 13:30 17.7 46 438.2 600 0.0 7.8 27.9 206
15/02/2020 13:40 17.6 47 365.7 600 0.0 6.5 23.5 206
15/02/2020 13:50 17.3 49 327.6 570 0.0 6.2 22.3 200
15/02/2020 14:00 17.5 49 362.0 600 0.0 6.2 22.5 210
15/02/2020 14:10 17.6 48 279.8 482 0.0 6.4 23.1 214
15/02/2020 14:20 17.5 48 264.0 434 0.0 5.0 17.8 205
15/02/2020 14:30 17.5 48 249.0 340 0.0 6.1 21.8 215
15/02/2020 14:40 17.5 47 225.5 16 0.0 7.0 25.1 212
15/02/2020 14:50 17.4 48 197.3 0 0.0 7.0 25.2 204
15/02/2020 15:00 17.5 47 178.1 0 0.0 5.8 20.9 200
15/02/2020 15:10 17.5 47 158.2 0 0.0 5.5 19.9 202
15/02/2020 15:20 17.3 48 136.0 0 0.0 5.5 19.9 213
15/02/2020 15:30 17.3 49 109.5 0 0.0 4.4 15.9 214
15/02/2020 15:40 17.1 50 89.4 0 0.0 3.9 13.9 202
15/02/2020 15:50 16.9 51 85.4 0 0.0 4.5 16.3 201
15/02/2020 16:00 17.0 50 82.3 0 0.0 4.6 16.6 207
15/02/2020 16:10 16.8 51 78.5 0 0.0 4.6 16.4 203
15/02/2020 16:20 16.8 51 75.9 0 0.0 5.1 18.4 207
15/02/2020 16:30 16.8 51 73.8 0 0.0 6.6 23.8 207
15/02/2020 16:40 16.7 52 65.4 0 0.0 6.8 24.3 213
15/02/2020 16:50 16.6 52 63.1 0 0.0 6.4 23.2 210
15/02/2020 17:00 16.7 52 60.3 434 0.0 6.8 24.6 209
15/02/2020 17:10 16.6 53 52.1 600 0.0 8.2 29.4 210
15/02/2020 17:20 16.5 53 37.4 516 0.0 8.6 30.8 214
15/02/2020 17:30 16.5 53 11.2 0 0.0 8.6 31.0 211
15/02/2020 17:40 16.4 53 0.0 0 0.0 7.6 27.2 213
15/02/2020 17:50 16.5 52 0.0 0 0.0 8.7 31.2 216
15/02/2020 18:00 16.6 51 0.0 0 0.0 9.1 32.7 211
15/02/2020 18:10 16.5 51 0.0 0 0.0 9.2 33.2 210
15/02/2020 18:20 16.5 51 0.0 0 0.0 7.9 28.5 207
15/02/2020 18:30 16.4 52 0.0 0 0.0 8.3 29.7 206
15/02/2020 18:40 16.5 52 0.0 0 0.0 8.0 28.7 206
15/02/2020 18:50 16.2 52 0.0 0 0.0 6.1 22.1 204
15/02/2020 19:00 16.1 53 0.0 0 0.0 5.3 19.1 201
15/02/2020 19:10 16.1 53 0.0 0 0.0 5.5 19.8 197
15/02/2020 19:20 16.2 53 0.0 0 0.0 6.4 23.0 208
15/02/2020 19:30 16.2 53 0.0 0 0.0 6.7 23.9 205
15/02/2020 19:40 16.1 53 0.0 0 0.0 7.0 25.3 208
15/02/2020 19:50 16.1 53 0.0 0 0.0 6.8 24.6 205
15/02/2020 20:00 16.4 52 0.0 0 0.0 7.3 26.2 207
15/02/2020 20:10 16.3 52 0.0 0 0.0 6.9 24.7 208
15/02/2020 20:20 16.2 53 0.0 0 0.0 5.6 20.1 199
15/02/2020 20:30 16.3 54 0.0 0 0.0 6.6 23.8 197
15/02/2020 20:40 16.2 54 0.0 0 0.0 5.8 21.0 201
15/02/2020 20:50 16.3 54 0.0 0 0.0 7.3 26.4 202
15/02/2020 21:00 16.2 54 0.0 0 0.0 6.3 22.8 204
15/02/2020 21:10 16.2 55 0.0 0 0.0 6.0 21.5 202
15/02/2020 21:20 16.1 56 0.0 0 0.0 7.1 25.7 211
15/02/2020 21:30 15.9 56 0.0 0 0.0 7.6 27.3 209
15/02/2020 21:40 15.9 56 0.0 0 0.0 7.2 26.0 207
15/02/2020 21:50 16.0 56 0.0 0 0.0 7.7 27.9 198
15/02/2020 22:00 15.9 56 0.0 0 0.0 6.4 23.1 188
15/02/2020 22:10 16.0 55 0.0 0 0.0 5.8 20.9 192
15/02/2020 22:20 16.1 54 0.0 0 0.0 7.0 25.1 201
15/02/2020 22:30 16.1 54 0.0 0 0.0 7.1 25.5 203
15/02/2020 22:40 15.9 55 0.0 0 0.0 7.7 27.6 203
15/02/2020 22:50 15.9 54 0.0 0 0.0 7.6 27.3 202
15/02/2020 23:00 16.0 52 0.0 0 0.0 6.7 24.0 204
15/02/2020 23:10 16.2 51 0.0 0 0.0 6.2 22.1 207
15/02/2020 23:20 15.9 53 0.0 0 0.0 6.1 22.1 214
15/02/2020 23:30 16.0 52 0.0 0 0.0 6.7 24.3 201
15/02/2020 23:40 15.9 53 0.0 0 0.0 5.5 19.7 209
15/02/2020 23:50 15.7 53 0.0 0 0.0 4.9 17.5 211
Anterior Página 1 de 1 Siguiente

NOTA: Tipo de datos según el color:
   - Valores diarios o 10 minutos correctos
   - Valores diarios calculados a partir de un número de datos 10 minutos menor que 144 y mayor que 120, o de un número de datos semihorarios menor que 48 y mayor que 40 (caso de las estaciones de INTIA y del Ministerio)
   - Valores diez minutos estimados


Contacto        Enlaces        Aviso legal